NINIGRET RI US current weather conditions

sailwx.info

Wind from 253 at 0 knots gusting 6

Air temperature 23.9° C
Dewpoint 23.7° C

Last reported at 2020-Aug-13 02:25 UTC.
Time now 2020-Aug-14 00:01 UTC

Location: N 41°23' W 071°35'.
View on Google Maps.

See reports from other nearby stations

  
Tides and Currents Weather Stations Pressure Air Temp Water Temp Dewpoint Dewpoint Depression Visibility Wind Speed Wind Dir Waves Ship Positions
date/time (UTC)wind fromknots sea level pressurealtimeterstation pressurevisibilityair tempwater tempwave heightnotes
2020-Aug-13 02:25 253 0 gusting 6 23.9
2020-Aug-13 01:25 232 2 gusting 7 23.3
2020-Aug-13 00:25 229 2 gusting 9 23.9
2020-Aug-12 23:25 232 3 gusting 9 24.4
2020-Aug-12 22:25 231 4 gusting 11 24.4
2020-Aug-12 21:25 210 4 gusting 12 26.1
2020-Aug-12 20:25 205 5 gusting 12 28.3
2020-Aug-12 19:25 207 6 gusting 12 28.3
2020-Aug-12 18:25 205 6 gusting 13 28.3
2020-Aug-12 17:25 207 6 gusting 13 28.3
2020-Aug-12 16:25 195 7 gusting 12 27.2
2020-Aug-12 15:25 202 5 gusting 10 28.3
2020-Aug-12 14:25 209 5 gusting 9 27.2
2020-Aug-12 13:25 237 2 gusting 11 26.7
2020-Aug-12 12:25 227 4 gusting 7 25.6
2020-Aug-12 11:25 230 3 gusting 9 23.9
2020-Aug-12 10:25 238 2 gusting 9 23.3
2020-Aug-12 09:25 218 4 gusting 10 23.3
2020-Aug-12 08:25 226 4 gusting 10 23.3
2020-Aug-12 07:25 221 4 gusting 8 23.3
2020-Aug-12 06:25 224 4 gusting 9 23.3
2020-Aug-12 05:25 220 4 gusting 10 23.3
2020-Aug-12 04:25 225 5 gusting 9 23.9
2020-Aug-12 03:25 231 3 gusting 8 23.3
2020-Aug-12 02:25 212 4 gusting 8 23.9
2020-Aug-12 01:25 218 4 gusting 9 23.9
2020-Aug-12 00:25 221 4 gusting 8 23.3